sensor_id;sensor_type;location;lat;lon;timestamp;P1;durP1;ratioP1;P2;durP2;ratioP2
18445;SDS011;9352;50.888;4.466;2023-04-30T00:01:46;29.80;;;15.80;;
18445;SDS011;9352;50.888;4.466;2023-04-30T00:04:12;26.52;;;14.05;;
18445;SDS011;9352;50.888;4.466;2023-04-30T00:06:39;23.80;;;14.25;;
18445;SDS011;9352;50.888;4.466;2023-04-30T00:09:08;27.55;;;13.48;;
18445;SDS011;9352;50.888;4.466;2023-04-30T00:11:35;20.60;;;13.23;;
18445;SDS011;9352;50.888;4.466;2023-04-30T00:14:01;22.42;;;12.18;;
18445;SDS011;9352;50.888;4.466;2023-04-30T00:16:28;22.90;;;12.23;;
18445;SDS011;9352;50.888;4.466;2023-04-30T00:18:55;21.48;;;12.07;;
18445;SDS011;9352;50.888;4.466;2023-04-30T00:21:22;23.60;;;11.90;;
18445;SDS011;9352;50.888;4.466;2023-04-30T00:23:49;20.05;;;11.75;;
18445;SDS011;9352;50.888;4.466;2023-04-30T00:26:17;17.50;;;11.65;;
18445;SDS011;9352;50.888;4.466;2023-04-30T00:28:44;17.58;;;10.38;;
18445;SDS011;9352;50.888;4.466;2023-04-30T00:31:11;20.80;;;10.60;;
18445;SDS011;9352;50.888;4.466;2023-04-30T00:33:38;18.42;;;9.80;;
18445;SDS011;9352;50.888;4.466;2023-04-30T00:36:05;17.27;;;9.60;;
18445;SDS011;9352;50.888;4.466;2023-04-30T00:38:32;14.60;;;9.82;;
18445;SDS011;9352;50.888;4.466;2023-04-30T00:40:59;20.00;;;9.60;;
18445;SDS011;9352;50.888;4.466;2023-04-30T00:43:27;16.45;;;10.20;;
18445;SDS011;9352;50.888;4.466;2023-04-30T00:45:54;15.68;;;9.82;;
18445;SDS011;9352;50.888;4.466;2023-04-30T00:48:22;15.68;;;9.07;;
18445;SDS011;9352;50.888;4.466;2023-04-30T00:50:50;15.45;;;8.75;;
18445;SDS011;9352;50.888;4.466;2023-04-30T00:53:17;16.45;;;9.15;;
18445;SDS011;9352;50.888;4.466;2023-04-30T00:55:45;15.48;;;8.77;;
18445;SDS011;9352;50.888;4.466;2023-04-30T00:58:13;14.57;;;8.05;;
18445;SDS011;9352;50.888;4.466;2023-04-30T01:00:41;16.27;;;8.35;;
18445;SDS011;9352;50.888;4.466;2023-04-30T01:03:11;13.73;;;7.97;;
18445;SDS011;9352;50.888;4.466;2023-04-30T01:05:38;13.43;;;9.05;;
18445;SDS011;9352;50.888;4.466;2023-04-30T01:08:05;14.38;;;9.48;;
18445;SDS011;9352;50.888;4.466;2023-04-30T01:10:35;15.80;;;9.07;;
18445;SDS011;9352;50.888;4.466;2023-04-30T01:13:08;14.63;;;8.93;;
18445;SDS011;9352;50.888;4.466;2023-04-30T01:15:45;16.70;;;9.75;;
18445;SDS011;9352;50.888;4.466;2023-04-30T01:18:20;17.92;;;9.07;;
18445;SDS011;9352;50.888;4.466;2023-04-30T01:20:52;13.75;;;9.25;;
18445;SDS011;9352;50.888;4.466;2023-04-30T01:23:26;16.92;;;9.75;;
18445;SDS011;9352;50.888;4.466;2023-04-30T01:26:12;15.60;;;10.02;;
18445;SDS011;9352;50.888;4.466;2023-04-30T01:28:43;16.30;;;9.20;;
18445;SDS011;9352;50.888;4.466;2023-04-30T01:31:14;13.45;;;8.68;;
18445;SDS011;9352;50.888;4.466;2023-04-30T01:33:43;17.55;;;9.48;;
18445;SDS011;9352;50.888;4.466;2023-04-30T01:36:18;15.65;;;9.18;;
18445;SDS011;9352;50.888;4.466;2023-04-30T01:39:05;17.63;;;8.93;;
18445;SDS011;9352;50.888;4.466;2023-04-30T01:41:44;16.48;;;9.70;;
18445;SDS011;9352;50.888;4.466;2023-04-30T01:44:36;15.65;;;9.40;;
18445;SDS011;9352;50.888;4.466;2023-04-30T01:47:14;15.32;;;9.45;;
18445;SDS011;9352;50.888;4.466;2023-04-30T01:49:50;14.65;;;9.18;;
18445;SDS011;9352;50.888;4.466;2023-04-30T01:52:30;15.90;;;9.45;;
18445;SDS011;9352;50.888;4.466;2023-04-30T01:55:06;19.80;;;9.32;;
18445;SDS011;9352;50.888;4.466;2023-04-30T01:57:37;25.15;;;10.32;;
18445;SDS011;9352;50.888;4.466;2023-04-30T02:00:09;21.63;;;9.70;;
18445;SDS011;9352;50.888;4.466;2023-04-30T02:02:37;18.88;;;9.90;;
18445;SDS011;9352;50.888;4.466;2023-04-30T02:05:04;16.58;;;9.77;;
18445;SDS011;9352;50.888;4.466;2023-04-30T02:07:35;17.60;;;10.02;;
18445;SDS011;9352;50.888;4.466;2023-04-30T02:10:04;15.77;;;9.95;;
18445;SDS011;9352;50.888;4.466;2023-04-30T02:12:32;17.52;;;9.73;;
18445;SDS011;9352;50.888;4.466;2023-04-30T02:14:59;20.02;;;9.93;;
18445;SDS011;9352;50.888;4.466;2023-04-30T02:17:28;15.75;;;9.82;;
18445;SDS011;9352;50.888;4.466;2023-04-30T02:19:55;16.98;;;9.68;;
18445;SDS011;9352;50.888;4.466;2023-04-30T02:22:22;16.70;;;9.45;;
18445;SDS011;9352;50.888;4.466;2023-04-30T02:24:49;14.80;;;9.48;;
18445;SDS011;9352;50.888;4.466;2023-04-30T02:27:18;14.40;;;8.95;;
18445;SDS011;9352;50.888;4.466;2023-04-30T02:29:45;17.42;;;9.68;;
18445;SDS011;9352;50.888;4.466;2023-04-30T02:32:12;20.15;;;9.25;;
18445;SDS011;9352;50.888;4.466;2023-04-30T02:34:41;16.98;;;9.70;;
18445;SDS011;9352;50.888;4.466;2023-04-30T02:37:08;16.75;;;9.00;;
18445;SDS011;9352;50.888;4.466;2023-04-30T02:39:35;18.92;;;9.48;;
18445;SDS011;9352;50.888;4.466;2023-04-30T02:42:02;14.02;;;8.35;;
18445;SDS011;9352;50.888;4.466;2023-04-30T02:44:30;15.98;;;9.35;;
18445;SDS011;9352;50.888;4.466;2023-04-30T02:46:58;14.27;;;8.40;;
18445;SDS011;9352;50.888;4.466;2023-04-30T02:49:25;19.58;;;9.05;;
18445;SDS011;9352;50.888;4.466;2023-04-30T02:51:53;18.42;;;9.02;;
18445;SDS011;9352;50.888;4.466;2023-04-30T02:54:20;17.23;;;8.98;;
18445;SDS011;9352;50.888;4.466;2023-04-30T02:56:47;15.35;;;8.75;;
18445;SDS011;9352;50.888;4.466;2023-04-30T02:59:14;21.13;;;9.07;;
18445;SDS011;9352;50.888;4.466;2023-04-30T03:01:41;21.35;;;9.35;;
18445;SDS011;9352;50.888;4.466;2023-04-30T03:04:08;13.63;;;9.23;;
18445;SDS011;9352;50.888;4.466;2023-04-30T03:06:34;12.20;;;8.82;;
18445;SDS011;9352;50.888;4.466;2023-04-30T03:09:03;16.20;;;8.85;;
18445;SDS011;9352;50.888;4.466;2023-04-30T03:11:30;17.33;;;9.27;;
18445;SDS011;9352;50.888;4.466;2023-04-30T03:13:57;16.02;;;9.05;;
18445;SDS011;9352;50.888;4.466;2023-04-30T03:16:24;16.65;;;9.05;;
18445;SDS011;9352;50.888;4.466;2023-04-30T03:18:51;17.38;;;9.75;;
18445;SDS011;9352;50.888;4.466;2023-04-30T03:21:18;14.85;;;9.20;;
18445;SDS011;9352;50.888;4.466;2023-04-30T03:23:45;21.33;;;9.20;;
18445;SDS011;9352;50.888;4.466;2023-04-30T03:26:13;18.75;;;9.57;;
18445;SDS011;9352;50.888;4.466;2023-04-30T03:28:40;20.35;;;8.88;;
18445;SDS011;9352;50.888;4.466;2023-04-30T03:31:07;17.13;;;9.18;;
18445;SDS011;9352;50.888;4.466;2023-04-30T03:33:33;16.45;;;9.02;;
18445;SDS011;9352;50.888;4.466;2023-04-30T03:36:00;15.50;;;9.27;;
18445;SDS011;9352;50.888;4.466;2023-04-30T03:38:27;18.52;;;9.15;;
18445;SDS011;9352;50.888;4.466;2023-04-30T03:40:55;17.23;;;9.70;;
18445;SDS011;9352;50.888;4.466;2023-04-30T03:43:23;17.27;;;8.88;;
18445;SDS011;9352;50.888;4.466;2023-04-30T03:45:50;14.35;;;9.07;;
18445;SDS011;9352;50.888;4.466;2023-04-30T03:48:17;15.52;;;9.45;;
18445;SDS011;9352;50.888;4.466;2023-04-30T03:50:43;18.33;;;9.10;;
18445;SDS011;9352;50.888;4.466;2023-04-30T03:53:11;17.10;;;9.52;;
18445;SDS011;9352;50.888;4.466;2023-04-30T03:55:38;17.75;;;9.45;;
18445;SDS011;9352;50.888;4.466;2023-04-30T03:58:04;15.68;;;9.63;;
18445;SDS011;9352;50.888;4.466;2023-04-30T04:00:33;19.38;;;9.27;;
18445;SDS011;9352;50.888;4.466;2023-04-30T04:03:00;20.95;;;9.90;;
18445;SDS011;9352;50.888;4.466;2023-04-30T04:05:28;15.10;;;9.32;;
18445;SDS011;9352;50.888;4.466;2023-04-30T04:07:55;15.43;;;9.40;;
18445;SDS011;9352;50.888;4.466;2023-04-30T04:10:22;16.50;;;9.60;;
18445;SDS011;9352;50.888;4.466;2023-04-30T04:12:49;20.13;;;9.60;;
18445;SDS011;9352;50.888;4.466;2023-04-30T04:15:16;16.02;;;9.48;;
18445;SDS011;9352;50.888;4.466;2023-04-30T04:17:44;20.75;;;9.90;;
18445;SDS011;9352;50.888;4.466;2023-04-30T04:20:11;20.63;;;10.02;;
18445;SDS011;9352;50.888;4.466;2023-04-30T04:22:38;17.02;;;9.95;;
18445;SDS011;9352;50.888;4.466;2023-04-30T04:25:05;18.02;;;9.95;;
18445;SDS011;9352;50.888;4.466;2023-04-30T04:27:32;14.85;;;9.15;;
18445;SDS011;9352;50.888;4.466;2023-04-30T04:30:00;17.15;;;9.80;;
18445;SDS011;9352;50.888;4.466;2023-04-30T04:32:27;19.48;;;9.45;;
18445;SDS011;9352;50.888;4.466;2023-04-30T04:34:56;18.02;;;9.85;;
18445;SDS011;9352;50.888;4.466;2023-04-30T04:37:22;14.48;;;9.48;;
18445;SDS011;9352;50.888;4.466;2023-04-30T04:39:49;17.02;;;10.35;;
18445;SDS011;9352;50.888;4.466;2023-04-30T04:42:16;17.52;;;9.95;;
18445;SDS011;9352;50.888;4.466;2023-04-30T04:44:44;18.23;;;9.90;;
18445;SDS011;9352;50.888;4.466;2023-04-30T04:47:11;18.55;;;9.73;;
18445;SDS011;9352;50.888;4.466;2023-04-30T04:49:38;20.10;;;10.45;;
18445;SDS011;9352;50.888;4.466;2023-04-30T04:52:06;24.38;;;10.52;;
18445;SDS011;9352;50.888;4.466;2023-04-30T04:54:33;18.13;;;9.80;;
18445;SDS011;9352;50.888;4.466;2023-04-30T04:57:00;18.70;;;10.15;;
18445;SDS011;9352;50.888;4.466;2023-04-30T04:59:27;20.58;;;10.38;;
18445;SDS011;9352;50.888;4.466;2023-04-30T05:01:54;18.48;;;10.90;;
18445;SDS011;9352;50.888;4.466;2023-04-30T05:04:21;19.63;;;10.30;;
18445;SDS011;9352;50.888;4.466;2023-04-30T05:06:48;20.35;;;11.07;;
18445;SDS011;9352;50.888;4.466;2023-04-30T05:09:16;21.95;;;11.63;;
18445;SDS011;9352;50.888;4.466;2023-04-30T05:11:43;23.58;;;11.50;;
18445;SDS011;9352;50.888;4.466;2023-04-30T05:14:13;20.67;;;11.82;;
18445;SDS011;9352;50.888;4.466;2023-04-30T05:16:39;19.58;;;11.90;;
18445;SDS011;9352;50.888;4.466;2023-04-30T05:19:06;19.10;;;11.70;;
18445;SDS011;9352;50.888;4.466;2023-04-30T05:21:34;22.38;;;12.00;;
18445;SDS011;9352;50.888;4.466;2023-04-30T05:24:01;29.00;;;12.52;;
18445;SDS011;9352;50.888;4.466;2023-04-30T05:26:29;21.10;;;12.48;;
18445;SDS011;9352;50.888;4.466;2023-04-30T05:28:56;27.13;;;13.35;;
18445;SDS011;9352;50.888;4.466;2023-04-30T05:31:23;24.48;;;12.77;;
18445;SDS011;9352;50.888;4.466;2023-04-30T05:33:50;20.55;;;12.05;;
18445;SDS011;9352;50.888;4.466;2023-04-30T05:36:17;19.88;;;11.88;;
18445;SDS011;9352;50.888;4.466;2023-04-30T05:38:44;21.15;;;12.57;;
18445;SDS011;9352;50.888;4.466;2023-04-30T05:41:11;21.70;;;12.75;;
18445;SDS011;9352;50.888;4.466;2023-04-30T05:43:39;28.98;;;12.23;;
18445;SDS011;9352;50.888;4.466;2023-04-30T05:46:06;23.40;;;12.48;;
18445;SDS011;9352;50.888;4.466;2023-04-30T05:48:33;17.83;;;11.55;;
18445;SDS011;9352;50.888;4.466;2023-04-30T05:51:00;24.20;;;12.88;;
18445;SDS011;9352;50.888;4.466;2023-04-30T05:53:27;22.70;;;13.15;;
18445;SDS011;9352;50.888;4.466;2023-04-30T05:55:54;20.73;;;12.43;;
18445;SDS011;9352;50.888;4.466;2023-04-30T05:58:20;21.80;;;13.02;;
18445;SDS011;9352;50.888;4.466;2023-04-30T06:00:49;24.25;;;11.95;;
18445;SDS011;9352;50.888;4.466;2023-04-30T06:03:17;21.88;;;12.73;;
18445;SDS011;9352;50.888;4.466;2023-04-30T06:05:44;20.27;;;11.95;;
18445;SDS011;9352;50.888;4.466;2023-04-30T06:08:11;26.30;;;12.68;;
18445;SDS011;9352;50.888;4.466;2023-04-30T06:10:38;17.00;;;9.70;;
18445;SDS011;9352;50.888;4.466;2023-04-30T06:13:05;18.30;;;10.45;;
18445;SDS011;9352;50.888;4.466;2023-04-30T06:15:32;18.88;;;12.25;;
18445;SDS011;9352;50.888;4.466;2023-04-30T06:18:00;23.45;;;12.75;;
18445;SDS011;9352;50.888;4.466;2023-04-30T06:20:28;24.73;;;13.38;;
18445;SDS011;9352;50.888;4.466;2023-04-30T06:22:55;27.13;;;13.32;;
18445;SDS011;9352;50.888;4.466;2023-04-30T06:25:22;21.25;;;13.40;;
18445;SDS011;9352;50.888;4.466;2023-04-30T06:27:49;23.50;;;14.13;;
18445;SDS011;9352;50.888;4.466;2023-04-30T06:30:18;30.85;;;14.40;;
18445;SDS011;9352;50.888;4.466;2023-04-30T06:32:45;21.00;;;13.75;;
18445;SDS011;9352;50.888;4.466;2023-04-30T06:35:13;22.00;;;13.70;;
18445;SDS011;9352;50.888;4.466;2023-04-30T06:37:40;29.30;;;14.48;;
18445;SDS011;9352;50.888;4.466;2023-04-30T06:40:07;24.70;;;14.80;;
18445;SDS011;9352;50.888;4.466;2023-04-30T06:42:34;27.65;;;15.98;;
18445;SDS011;9352;50.888;4.466;2023-04-30T06:45:01;24.95;;;15.00;;
18445;SDS011;9352;50.888;4.466;2023-04-30T06:47:30;25.40;;;14.82;;
18445;SDS011;9352;50.888;4.466;2023-04-30T06:49:58;26.55;;;15.25;;
18445;SDS011;9352;50.888;4.466;2023-04-30T06:52:26;27.25;;;14.77;;
18445;SDS011;9352;50.888;4.466;2023-04-30T06:54:54;23.02;;;13.77;;
18445;SDS011;9352;50.888;4.466;2023-04-30T06:57:21;26.27;;;14.48;;
18445;SDS011;9352;50.888;4.466;2023-04-30T06:59:48;27.42;;;14.38;;
18445;SDS011;9352;50.888;4.466;2023-04-30T07:02:15;24.73;;;14.32;;
18445;SDS011;9352;50.888;4.466;2023-04-30T07:04:42;23.98;;;14.40;;
18445;SDS011;9352;50.888;4.466;2023-04-30T07:07:09;27.50;;;14.82;;
18445;SDS011;9352;50.888;4.466;2023-04-30T07:09:37;22.00;;;14.18;;
18445;SDS011;9352;50.888;4.466;2023-04-30T07:12:04;29.23;;;15.73;;
18445;SDS011;9352;50.888;4.466;2023-04-30T07:14:32;22.38;;;13.70;;
18445;SDS011;9352;50.888;4.466;2023-04-30T07:16:58;23.23;;;14.70;;
18445;SDS011;9352;50.888;4.466;2023-04-30T07:19:25;25.25;;;14.95;;
18445;SDS011;9352;50.888;4.466;2023-04-30T07:21:52;31.70;;;14.98;;
18445;SDS011;9352;50.888;4.466;2023-04-30T07:24:19;29.88;;;15.52;;
18445;SDS011;9352;50.888;4.466;2023-04-30T07:26:47;26.67;;;15.43;;
18445;SDS011;9352;50.888;4.466;2023-04-30T07:29:14;26.60;;;15.45;;
18445;SDS011;9352;50.888;4.466;2023-04-30T07:31:42;27.70;;;14.90;;
18445;SDS011;9352;50.888;4.466;2023-04-30T07:34:09;27.92;;;15.88;;
18445;SDS011;9352;50.888;4.466;2023-04-30T07:36:37;26.77;;;15.25;;
18445;SDS011;9352;50.888;4.466;2023-04-30T07:39:04;23.63;;;15.07;;
18445;SDS011;9352;50.888;4.466;2023-04-30T07:41:32;25.25;;;15.52;;
18445;SDS011;9352;50.888;4.466;2023-04-30T07:44:00;24.65;;;15.55;;
18445;SDS011;9352;50.888;4.466;2023-04-30T07:46:27;34.97;;;16.23;;
18445;SDS011;9352;50.888;4.466;2023-04-30T07:48:54;27.55;;;16.25;;
18445;SDS011;9352;50.888;4.466;2023-04-30T07:51:21;27.38;;;15.90;;
18445;SDS011;9352;50.888;4.466;2023-04-30T07:53:48;25.63;;;16.33;;
18445;SDS011;9352;50.888;4.466;2023-04-30T07:56:17;29.02;;;16.17;;
18445;SDS011;9352;50.888;4.466;2023-04-30T07:58:44;38.05;;;17.05;;
18445;SDS011;9352;50.888;4.466;2023-04-30T08:01:12;28.60;;;16.65;;
18445;SDS011;9352;50.888;4.466;2023-04-30T08:03:40;27.52;;;16.75;;
18445;SDS011;9352;50.888;4.466;2023-04-30T08:06:07;25.42;;;15.98;;
18445;SDS011;9352;50.888;4.466;2023-04-30T08:08:34;25.63;;;16.73;;
18445;SDS011;9352;50.888;4.466;2023-04-30T08:11:00;31.35;;;17.80;;
18445;SDS011;9352;50.888;4.466;2023-04-30T08:13:27;27.10;;;16.15;;
18445;SDS011;9352;50.888;4.466;2023-04-30T08:15:54;28.30;;;16.73;;
18445;SDS011;9352;50.888;4.466;2023-04-30T08:18:23;26.20;;;16.40;;
18445;SDS011;9352;50.888;4.466;2023-04-30T08:20:50;29.35;;;15.73;;
18445;SDS011;9352;50.888;4.466;2023-04-30T08:23:17;27.58;;;16.45;;
18445;SDS011;9352;50.888;4.466;2023-04-30T08:25:44;28.27;;;16.38;;
18445;SDS011;9352;50.888;4.466;2023-04-30T08:28:11;24.23;;;16.38;;
18445;SDS011;9352;50.888;4.466;2023-04-30T08:30:38;24.80;;;16.00;;
18445;SDS011;9352;50.888;4.466;2023-04-30T08:33:05;26.02;;;15.18;;
18445;SDS011;9352;50.888;4.466;2023-04-30T08:35:33;23.90;;;16.02;;
18445;SDS011;9352;50.888;4.466;2023-04-30T08:38:00;24.75;;;14.70;;
18445;SDS011;9352;50.888;4.466;2023-04-30T08:40:27;25.92;;;15.30;;
18445;SDS011;9352;50.888;4.466;2023-04-30T08:42:57;21.85;;;14.93;;
18445;SDS011;9352;50.888;4.466;2023-04-30T08:45:30;21.55;;;14.30;;
18445;SDS011;9352;50.888;4.466;2023-04-30T08:47:58;25.67;;;15.85;;
18445;SDS011;9352;50.888;4.466;2023-04-30T08:50:25;25.40;;;15.18;;
18445;SDS011;9352;50.888;4.466;2023-04-30T08:52:54;21.95;;;14.15;;
18445;SDS011;9352;50.888;4.466;2023-04-30T08:55:21;20.33;;;13.48;;
18445;SDS011;9352;50.888;4.466;2023-04-30T08:57:50;20.30;;;13.85;;
18445;SDS011;9352;50.888;4.466;2023-04-30T09:00:17;22.00;;;13.82;;
18445;SDS011;9352;50.888;4.466;2023-04-30T09:02:44;19.75;;;14.15;;
18445;SDS011;9352;50.888;4.466;2023-04-30T09:05:13;18.98;;;12.85;;
18445;SDS011;9352;50.888;4.466;2023-04-30T09:07:41;21.48;;;13.07;;
18445;SDS011;9352;50.888;4.466;2023-04-30T09:10:14;20.45;;;13.65;;
18445;SDS011;9352;50.888;4.466;2023-04-30T09:12:42;20.40;;;13.90;;
18445;SDS011;9352;50.888;4.466;2023-04-30T09:15:10;23.75;;;14.10;;
18445;SDS011;9352;50.888;4.466;2023-04-30T09:17:38;20.75;;;13.02;;
18445;SDS011;9352;50.888;4.466;2023-04-30T09:20:05;18.65;;;12.43;;
18445;SDS011;9352;50.888;4.466;2023-04-30T09:22:34;15.18;;;11.27;;
18445;SDS011;9352;50.888;4.466;2023-04-30T09:25:02;16.58;;;10.77;;
18445;SDS011;9352;50.888;4.466;2023-04-30T09:27:31;14.15;;;10.18;;
18445;SDS011;9352;50.888;4.466;2023-04-30T09:29:58;18.00;;;12.07;;
18445;SDS011;9352;50.888;4.466;2023-04-30T09:32:25;18.23;;;11.75;;
18445;SDS011;9352;50.888;4.466;2023-04-30T09:34:52;17.55;;;10.80;;
18445;SDS011;9352;50.888;4.466;2023-04-30T09:37:20;15.55;;;9.10;;
18445;SDS011;9352;50.888;4.466;2023-04-30T09:39:47;12.88;;;8.75;;
18445;SDS011;9352;50.888;4.466;2023-04-30T09:42:15;13.32;;;9.23;;
18445;SDS011;9352;50.888;4.466;2023-04-30T09:44:45;11.50;;;9.48;;
18445;SDS011;9352;50.888;4.466;2023-04-30T09:47:13;17.75;;;10.65;;
18445;SDS011;9352;50.888;4.466;2023-04-30T09:49:41;14.80;;;9.75;;
18445;SDS011;9352;50.888;4.466;2023-04-30T09:52:09;18.33;;;9.77;;
18445;SDS011;9352;50.888;4.466;2023-04-30T09:54:37;13.45;;;9.38;;
18445;SDS011;9352;50.888;4.466;2023-04-30T09:57:05;17.35;;;9.07;;
18445;SDS011;9352;50.888;4.466;2023-04-30T09:59:36;9.93;;;8.55;;
18445;SDS011;9352;50.888;4.466;2023-04-30T10:02:06;10.15;;;8.32;;
18445;SDS011;9352;50.888;4.466;2023-04-30T10:04:34;10.77;;;8.35;;
18445;SDS011;9352;50.888;4.466;2023-04-30T10:07:03;9.18;;;8.02;;
18445;SDS011;9352;50.888;4.466;2023-04-30T10:09:35;9.82;;;7.72;;
18445;SDS011;9352;50.888;4.466;2023-04-30T10:12:07;8.85;;;7.38;;
18445;SDS011;9352;50.888;4.466;2023-04-30T10:14:38;10.68;;;7.22;;
18445;SDS011;9352;50.888;4.466;2023-04-30T10:17:12;11.32;;;7.40;;
18445;SDS011;9352;50.888;4.466;2023-04-30T10:19:42;10.02;;;7.10;;
18445;SDS011;9352;50.888;4.466;2023-04-30T10:22:13;8.20;;;6.68;;
18445;SDS011;9352;50.888;4.466;2023-04-30T10:24:41;9.32;;;6.78;;
18445;SDS011;9352;50.888;4.466;2023-04-30T10:27:08;11.13;;;6.60;;
18445;SDS011;9352;50.888;4.466;2023-04-30T10:29:35;6.72;;;5.97;;
18445;SDS011;9352;50.888;4.466;2023-04-30T10:32:02;10.27;;;8.35;;
18445;SDS011;9352;50.888;4.466;2023-04-30T10:34:34;11.88;;;7.80;;
18445;SDS011;9352;50.888;4.466;2023-04-30T10:37:10;11.43;;;7.50;;
18445;SDS011;9352;50.888;4.466;2023-04-30T10:39:43;9.13;;;7.20;;
18445;SDS011;9352;50.888;4.466;2023-04-30T10:42:11;10.13;;;7.45;;
18445;SDS011;9352;50.888;4.466;2023-04-30T10:44:38;8.88;;;7.45;;
18445;SDS011;9352;50.888;4.466;2023-04-30T10:47:06;9.23;;;7.47;;
18445;SDS011;9352;50.888;4.466;2023-04-30T10:49:34;7.63;;;6.40;;
18445;SDS011;9352;50.888;4.466;2023-04-30T10:52:02;7.75;;;6.10;;
18445;SDS011;9352;50.888;4.466;2023-04-30T10:54:30;5.97;;;5.43;;
18445;SDS011;9352;50.888;4.466;2023-04-30T10:57:08;7.30;;;5.55;;
18445;SDS011;9352;50.888;4.466;2023-04-30T10:59:36;6.28;;;5.45;;
18445;SDS011;9352;50.888;4.466;2023-04-30T11:02:03;7.63;;;5.93;;
18445;SDS011;9352;50.888;4.466;2023-04-30T11:04:30;7.15;;;6.47;;
18445;SDS011;9352;50.888;4.466;2023-04-30T11:07:06;4.95;;;4.30;;
18445;SDS011;9352;50.888;4.466;2023-04-30T11:09:35;7.18;;;4.70;;
18445;SDS011;9352;50.888;4.466;2023-04-30T11:12:09;5.05;;;4.55;;
18445;SDS011;9352;50.888;4.466;2023-04-30T11:14:41;7.68;;;5.10;;
18445;SDS011;9352;50.888;4.466;2023-04-30T11:17:10;6.07;;;4.90;;
18445;SDS011;9352;50.888;4.466;2023-04-30T11:19:47;5.03;;;4.63;;
18445;SDS011;9352;50.888;4.466;2023-04-30T11:22:17;5.10;;;4.60;;
18445;SDS011;9352;50.888;4.466;2023-04-30T11:24:50;5.72;;;4.68;;
18445;SDS011;9352;50.888;4.466;2023-04-30T11:27:26;6.07;;;5.45;;
18445;SDS011;9352;50.888;4.466;2023-04-30T11:29:54;5.32;;;4.80;;
18445;SDS011;9352;50.888;4.466;2023-04-30T11:32:22;5.20;;;4.75;;
18445;SDS011;9352;50.888;4.466;2023-04-30T11:34:50;5.32;;;4.82;;
18445;SDS011;9352;50.888;4.466;2023-04-30T11:37:20;6.63;;;4.97;;
18445;SDS011;9352;50.888;4.466;2023-04-30T11:39:49;5.63;;;5.13;;
18445;SDS011;9352;50.888;4.466;2023-04-30T11:42:17;7.05;;;5.72;;
18445;SDS011;9352;50.888;4.466;2023-04-30T11:44:44;5.35;;;4.85;;
18445;SDS011;9352;50.888;4.466;2023-04-30T11:47:11;5.30;;;4.75;;
18445;SDS011;9352;50.888;4.466;2023-04-30T11:49:39;5.13;;;4.50;;
18445;SDS011;9352;50.888;4.466;2023-04-30T11:52:06;4.03;;;3.63;;
18445;SDS011;9352;50.888;4.466;2023-04-30T11:54:36;5.82;;;4.78;;
18445;SDS011;9352;50.888;4.466;2023-04-30T11:57:03;4.88;;;4.38;;
18445;SDS011;9352;50.888;4.466;2023-04-30T11:59:30;11.80;;;5.15;;
18445;SDS011;9352;50.888;4.466;2023-04-30T12:02:05;5.70;;;4.28;;
18445;SDS011;9352;50.888;4.466;2023-04-30T12:04:32;5.80;;;5.30;;
18445;SDS011;9352;50.888;4.466;2023-04-30T12:06:59;6.20;;;4.80;;
18445;SDS011;9352;50.888;4.466;2023-04-30T12:09:26;5.40;;;4.90;;
18445;SDS011;9352;50.888;4.466;2023-04-30T12:11:55;6.03;;;5.40;;
18445;SDS011;9352;50.888;4.466;2023-04-30T12:14:23;6.47;;;5.72;;
18445;SDS011;9352;50.888;4.466;2023-04-30T12:16:51;5.55;;;5.05;;
18445;SDS011;9352;50.888;4.466;2023-04-30T12:19:18;6.80;;;4.80;;
18445;SDS011;9352;50.888;4.466;2023-04-30T12:21:49;6.28;;;4.78;;
18445;SDS011;9352;50.888;4.466;2023-04-30T12:24:19;5.10;;;4.40;;
18445;SDS011;9352;50.888;4.466;2023-04-30T12:26:47;4.68;;;3.95;;
18445;SDS011;9352;50.888;4.466;2023-04-30T12:29:16;4.40;;;4.00;;
18445;SDS011;9352;50.888;4.466;2023-04-30T12:31:44;3.95;;;3.65;;
18445;SDS011;9352;50.888;4.466;2023-04-30T12:34:14;4.60;;;4.03;;
18445;SDS011;9352;50.888;4.466;2023-04-30T12:36:42;4.72;;;4.13;;
18445;SDS011;9352;50.888;4.466;2023-04-30T12:39:09;4.78;;;4.07;;
18445;SDS011;9352;50.888;4.466;2023-04-30T12:41:38;3.55;;;3.25;;
18445;SDS011;9352;50.888;4.466;2023-04-30T12:46:54;4.35;;;3.15;;
18445;SDS011;9352;50.888;4.466;2023-04-30T12:49:22;3.85;;;3.55;;
18445;SDS011;9352;50.888;4.466;2023-04-30T12:51:50;3.70;;;3.40;;
18445;SDS011;9352;50.888;4.466;2023-04-30T12:54:24;3.67;;;3.38;;
18445;SDS011;9352;50.888;4.466;2023-04-30T12:56:58;5.72;;;3.40;;
18445;SDS011;9352;50.888;4.466;2023-04-30T12:59:28;4.57;;;3.08;;
18445;SDS011;9352;50.888;4.466;2023-04-30T13:02:03;5.93;;;3.17;;
18445;SDS011;9352;50.888;4.466;2023-04-30T13:04:34;4.10;;;3.33;;
18445;SDS011;9352;50.888;4.466;2023-04-30T13:07:01;2.92;;;2.78;;
18445;SDS011;9352;50.888;4.466;2023-04-30T13:09:29;4.70;;;3.00;;
18445;SDS011;9352;50.888;4.466;2023-04-30T13:11:56;5.57;;;3.00;;
18445;SDS011;9352;50.888;4.466;2023-04-30T13:14:23;3.63;;;3.28;;
18445;SDS011;9352;50.888;4.466;2023-04-30T13:16:51;3.63;;;2.80;;
18445;SDS011;9352;50.888;4.466;2023-04-30T13:19:18;2.72;;;2.50;;
18445;SDS011;9352;50.888;4.466;2023-04-30T13:21:45;2.70;;;2.50;;
18445;SDS011;9352;50.888;4.466;2023-04-30T13:24:12;3.33;;;2.70;;
18445;SDS011;9352;50.888;4.466;2023-04-30T13:26:40;2.80;;;2.70;;
18445;SDS011;9352;50.888;4.466;2023-04-30T13:29:07;4.78;;;2.50;;
18445;SDS011;9352;50.888;4.466;2023-04-30T13:31:34;2.58;;;2.47;;
18445;SDS011;9352;50.888;4.466;2023-04-30T13:34:03;3.70;;;2.40;;
18445;SDS011;9352;50.888;4.466;2023-04-30T13:36:30;2.65;;;2.33;;
18445;SDS011;9352;50.888;4.466;2023-04-30T13:38:57;2.60;;;2.40;;
18445;SDS011;9352;50.888;4.466;2023-04-30T13:41:24;2.97;;;2.75;;
18445;SDS011;9352;50.888;4.466;2023-04-30T13:43:51;2.72;;;2.53;;
18445;SDS011;9352;50.888;4.466;2023-04-30T13:46:17;3.13;;;2.63;;
18445;SDS011;9352;50.888;4.466;2023-04-30T13:48:44;2.45;;;2.35;;
18445;SDS011;9352;50.888;4.466;2023-04-30T13:51:13;3.33;;;3.10;;
18445;SDS011;9352;50.888;4.466;2023-04-30T13:53:40;3.85;;;2.50;;
18445;SDS011;9352;50.888;4.466;2023-04-30T13:56:07;2.80;;;2.67;;
18445;SDS011;9352;50.888;4.466;2023-04-30T13:58:34;3.35;;;2.35;;
18445;SDS011;9352;50.888;4.466;2023-04-30T14:01:01;2.72;;;2.30;;
18445;SDS011;9352;50.888;4.466;2023-04-30T14:03:28;2.75;;;2.50;;
18445;SDS011;9352;50.888;4.466;2023-04-30T14:05:55;4.78;;;2.60;;
18445;SDS011;9352;50.888;4.466;2023-04-30T14:08:23;2.75;;;2.65;;
18445;SDS011;9352;50.888;4.466;2023-04-30T14:10:50;2.70;;;2.50;;
18445;SDS011;9352;50.888;4.466;2023-04-30T14:13:17;3.25;;;2.38;;
18445;SDS011;9352;50.888;4.466;2023-04-30T14:15:44;2.55;;;2.45;;
18445;SDS011;9352;50.888;4.466;2023-04-30T14:18:11;2.67;;;2.58;;
18445;SDS011;9352;50.888;4.466;2023-04-30T14:20:38;2.70;;;2.50;;
18445;SDS011;9352;50.888;4.466;2023-04-30T14:23:05;2.70;;;2.55;;
18445;SDS011;9352;50.888;4.466;2023-04-30T14:25:34;3.50;;;2.70;;
18445;SDS011;9352;50.888;4.466;2023-04-30T14:28:01;3.90;;;2.83;;
18445;SDS011;9352;50.888;4.466;2023-04-30T14:30:27;3.97;;;2.88;;
18445;SDS011;9352;50.888;4.466;2023-04-30T14:32:54;3.10;;;2.90;;
18445;SDS011;9352;50.888;4.466;2023-04-30T14:35:21;3.97;;;2.30;;
18445;SDS011;9352;50.888;4.466;2023-04-30T14:37:48;2.35;;;2.25;;
18445;SDS011;9352;50.888;4.466;2023-04-30T14:40:15;2.50;;;2.30;;
18445;SDS011;9352;50.888;4.466;2023-04-30T14:42:43;2.92;;;2.72;;
18445;SDS011;9352;50.888;4.466;2023-04-30T14:45:10;3.50;;;3.22;;
18445;SDS011;9352;50.888;4.466;2023-04-30T14:47:38;3.72;;;3.22;;
18445;SDS011;9352;50.888;4.466;2023-04-30T14:50:05;5.13;;;2.75;;
18445;SDS011;9352;50.888;4.466;2023-04-30T14:52:32;3.50;;;3.30;;
18445;SDS011;9352;50.888;4.466;2023-04-30T14:54:59;2.78;;;2.60;;